Time;durP1;ratioP1;P1;durP2;ratioP2;P2;SDS_P1;SDS_P2;PMS_P1;PMS_P2;Temp;Humidity;BMP_temperature;BMP_pressure;BME280_temperature;BME280_humidity;BME280_pressure;Samples;Min_cycle;Max_cycle;Signal;HPM_P1;HPM_P2
2023/08/30 00:01:47;;;;;;;16.15;13.63;;;;;;;;;;5004948;28;20465;-61
2023/08/30 00:04:14;;;;;;;16.38;13.38;;;;;;;;;;5013090;28;20767;-62
2023/08/30 00:06:41;;;;;;;17.55;13.73;;;;;;;;;;5007410;28;20922;-61
2023/08/30 00:09:08;;;;;;;18.58;14.50;;;;;;;;;;5011227;28;20424;-61
2023/08/30 00:11:35;;;;;;;17.58;14.90;;;;;;;;;;5004785;28;20842;-61
2023/08/30 00:14:06;;;;;;;18.15;14.50;;;;;;;;;;5010782;28;20424;-61
2023/08/30 00:16:34;;;;;;;20.00;14.70;;;;;;;;;;5010395;28;20467;-61
2023/08/30 00:19:01;;;;;;;19.70;14.82;;;;;;;;;;5010357;28;20453;-61
2023/08/30 00:21:29;;;;;;;18.65;14.43;;;;;;;;;;5008291;28;20420;-61
2023/08/30 00:23:56;;;;;;;18.67;14.52;;;;;;;;;;5013728;28;20445;-61
2023/08/30 00:26:23;;;;;;;19.02;14.75;;;;;;;;;;5006610;28;20445;-61
2023/08/30 00:28:50;;;;;;;19.15;14.90;;;;;;;;;;5014433;28;20791;-61
2023/08/30 00:31:17;;;;;;;21.95;15.73;;;;;;;;;;5001805;28;20414;-62
2023/08/30 00:33:45;;;;;;;18.17;14.98;;;;;;;;;;5012449;28;20914;-61
2023/08/30 00:36:12;;;;;;;20.23;15.50;;;;;;;;;;5002625;28;20414;-61
2023/08/30 00:38:39;;;;;;;21.48;16.13;;;;;;;;;;5014071;28;20421;-61
2023/08/30 00:41:06;;;;;;;21.05;15.38;;;;;;;;;;5009235;28;20424;-61
2023/08/30 00:43:33;;;;;;;21.02;15.52;;;;;;;;;;5013909;28;20437;-61
2023/08/30 00:46:00;;;;;;;20.38;16.30;;;;;;;;;;5008895;28;20429;-60
2023/08/30 00:48:27;;;;;;;20.58;16.70;;;;;;;;;;5018303;28;20408;-61
2023/08/30 00:50:56;;;;;;;24.25;17.48;;;;;;;;;;5020459;28;20430;-61
2023/08/30 00:53:23;;;;;;;23.70;17.90;;;;;;;;;;5018634;28;20416;-60
2023/08/30 00:55:50;;;;;;;20.63;16.75;;;;;;;;;;5011968;28;20405;-61
2023/08/30 00:58:17;;;;;;;22.13;17.05;;;;;;;;;;5017245;28;20432;-61
2023/08/30 01:00:44;;;;;;;22.00;17.70;;;;;;;;;;5011147;28;20421;-61
2023/08/30 01:03:11;;;;;;;21.15;17.08;;;;;;;;;;5012148;28;20420;-61
2023/08/30 01:05:38;;;;;;;21.38;17.15;;;;;;;;;;5013900;28;20763;-61
2023/08/30 01:08:07;;;;;;;24.55;17.45;;;;;;;;;;5013242;28;20419;-60
2023/08/30 01:10:40;;;;;;;24.73;18.88;;;;;;;;;;5015038;28;20419;-60
2023/08/30 01:13:10;;;;;;;26.27;18.17;;;;;;;;;;5031538;28;20411;-61
2023/08/30 01:15:37;;;;;;;23.05;18.90;;;;;;;;;;5009956;28;20407;-60
2023/08/30 01:18:06;;;;;;;25.23;19.33;;;;;;;;;;5018228;28;20447;-61
2023/08/30 01:20:36;;;;;;;26.20;19.73;;;;;;;;;;5022691;28;20414;-61
2023/08/30 01:23:05;;;;;;;26.25;20.63;;;;;;;;;;5011362;28;20425;-63
2023/08/30 01:25:42;;;;;;;25.33;19.80;;;;;;;;;;5011569;28;20477;-59
2023/08/30 01:28:11;;;;;;;25.23;18.83;;;;;;;;;;5006245;28;20789;-59
2023/08/30 01:30:42;;;;;;;24.07;19.70;;;;;;;;;;5007350;28;20417;-62
2023/08/30 01:33:09;;;;;;;28.02;20.85;;;;;;;;;;5007659;28;20409;-59
2023/08/30 01:35:37;;;;;;;28.23;21.23;;;;;;;;;;5017921;28;20411;-60
2023/08/30 01:38:05;;;;;;;27.17;21.20;;;;;;;;;;5005616;28;20429;-60
2023/08/30 01:40:36;;;;;;;28.90;21.45;;;;;;;;;;5017341;28;20434;-60
2023/08/30 01:43:05;;;;;;;31.10;22.15;;;;;;;;;;5003872;28;20449;-60
2023/08/30 01:45:34;;;;;;;26.50;21.80;;;;;;;;;;5014807;28;20621;-60
2023/08/30 01:48:01;;;;;;;29.80;22.65;;;;;;;;;;5003414;28;20425;-61
2023/08/30 01:50:29;;;;;;;34.20;25.48;;;;;;;;;;5013638;28;20970;-61
2023/08/30 01:52:57;;;;;;;33.42;25.42;;;;;;;;;;5003115;28;20783;-61
2023/08/30 01:55:24;;;;;;;36.25;26.67;;;;;;;;;;5012438;28;20473;-61
2023/08/30 01:57:51;;;;;;;34.97;27.13;;;;;;;;;;5008857;28;20411;-61
2023/08/30 02:00:18;;;;;;;34.28;26.40;;;;;;;;;;5009323;28;20426;-60
2023/08/30 02:02:47;;;;;;;33.95;25.85;;;;;;;;;;5008328;28;20415;-60
2023/08/30 02:05:14;;;;;;;39.90;27.95;;;;;;;;;;5010876;28;20413;-61
2023/08/30 02:07:45;;;;;;;38.05;29.00;;;;;;;;;;5009233;28;20419;-61
2023/08/30 02:10:13;;;;;;;36.22;28.17;;;;;;;;;;5011400;28;20416;-61
2023/08/30 02:12:42;;;;;;;37.50;28.63;;;;;;;;;;5011655;28;20797;-61
2023/08/30 02:15:10;;;;;;;38.67;30.00;;;;;;;;;;5014281;28;20424;-61
2023/08/30 02:17:37;;;;;;;42.72;31.08;;;;;;;;;;5012590;28;21061;-61
2023/08/30 02:20:07;;;;;;;41.63;32.20;;;;;;;;;;5013805;28;20416;-61
2023/08/30 02:22:34;;;;;;;42.00;32.13;;;;;;;;;;5016755;28;20908;-61
2023/08/30 02:25:03;;;;;;;41.60;31.17;;;;;;;;;;5010503;28;20415;-61
2023/08/30 02:27:31;;;;;;;41.97;31.63;;;;;;;;;;5015309;28;20441;-59
2023/08/30 02:29:58;;;;;;;42.63;31.08;;;;;;;;;;5011084;28;20417;-61
2023/08/30 02:32:25;;;;;;;43.25;31.83;;;;;;;;;;5008927;28;20871;-60
2023/08/30 02:34:53;;;;;;;41.95;32.83;;;;;;;;;;5013144;28;20421;-61
2023/08/30 02:37:21;;;;;;;44.05;33.67;;;;;;;;;;5011269;28;20406;-60
2023/08/30 02:39:49;;;;;;;42.08;32.55;;;;;;;;;;5012988;28;20436;-61
2023/08/30 02:42:16;;;;;;;43.78;32.40;;;;;;;;;;5009527;28;20883;-61
2023/08/30 02:44:43;;;;;;;43.70;32.15;;;;;;;;;;5013342;28;20417;-60
2023/08/30 02:47:10;;;;;;;44.90;32.20;;;;;;;;;;5008905;28;20455;-59
2023/08/30 02:49:37;;;;;;;39.70;30.77;;;;;;;;;;5012650;28;20469;-60
2023/08/30 02:52:04;;;;;;;40.20;31.02;;;;;;;;;;5015452;28;20421;-61
2023/08/30 02:54:33;;;;;;;36.25;29.17;;;;;;;;;;5011541;28;20411;-60
2023/08/30 02:57:00;;;;;;;41.65;30.58;;;;;;;;;;5015354;28;20491;-61
2023/08/30 02:59:27;;;;;;;38.08;30.38;;;;;;;;;;5008505;28;20414;-61
2023/08/30 03:01:54;;;;;;;45.20;32.92;;;;;;;;;;5002774;28;20439;-61
2023/08/30 03:04:21;;;;;;;44.08;33.72;;;;;;;;;;5006464;28;20430;-60
2023/08/30 03:06:49;;;;;;;44.17;33.90;;;;;;;;;;5004440;28;20425;-61
2023/08/30 03:09:16;;;;;;;48.88;34.40;;;;;;;;;;5008680;28;20773;-60
2023/08/30 03:11:44;;;;;;;47.20;34.80;;;;;;;;;;5011054;28;20460;-61
2023/08/30 03:14:11;;;;;;;46.15;32.85;;;;;;;;;;5006276;28;20441;-61
2023/08/30 03:16:38;;;;;;;47.30;33.95;;;;;;;;;;5016258;28;20515;-62
2023/08/30 03:19:05;;;;;;;54.53;35.92;;;;;;;;;;5004895;28;20417;-58
2023/08/30 03:21:33;;;;;;;51.28;34.55;;;;;;;;;;5011448;28;20411;-60
2023/08/30 03:24:00;;;;;;;58.38;37.35;;;;;;;;;;5005519;28;20420;-59
2023/08/30 03:26:27;;;;;;;54.13;35.85;;;;;;;;;;5013392;28;20761;-60
2023/08/30 03:28:55;;;;;;;66.05;41.45;;;;;;;;;;5001829;28;20413;-60
2023/08/30 03:31:23;;;;;;;56.17;38.63;;;;;;;;;;5006624;28;20636;-59
2023/08/30 03:33:50;;;;;;;60.55;40.30;;;;;;;;;;5007060;28;20416;-60
2023/08/30 03:36:18;;;;;;;64.88;41.70;;;;;;;;;;5012586;28;20405;-60
2023/08/30 03:38:46;;;;;;;58.20;40.20;;;;;;;;;;5011604;28;20419;-59
2023/08/30 03:41:13;;;;;;;60.45;40.15;;;;;;;;;;5013460;28;20783;-60
2023/08/30 03:43:40;;;;;;;60.03;38.20;;;;;;;;;;5011212;28;20504;-57
2023/08/30 03:46:11;;;;;;;53.33;37.90;;;;;;;;;;5010385;28;20430;-60
2023/08/30 03:48:38;;;;;;;53.92;36.75;;;;;;;;;;5007124;28;20416;-60
2023/08/30 03:51:05;;;;;;;52.00;36.60;;;;;;;;;;5012660;28;20416;-60
2023/08/30 03:53:32;;;;;;;49.92;36.58;;;;;;;;;;5020718;28;20416;-60
2023/08/30 03:56:00;;;;;;;49.63;35.22;;;;;;;;;;5018657;28;20423;-60
2023/08/30 03:58:27;;;;;;;54.40;36.90;;;;;;;;;;5009257;28;20450;-59
2023/08/30 04:00:54;;;;;;;57.53;38.70;;;;;;;;;;5009844;28;20423;-60
2023/08/30 04:03:22;;;;;;;56.60;38.67;;;;;;;;;;5002230;28;20433;-61
2023/08/30 04:05:49;;;;;;;62.20;40.53;;;;;;;;;;5020089;28;20799;-60
2023/08/30 04:08:16;;;;;;;59.57;39.97;;;;;;;;;;5008927;28;20520;-60
2023/08/30 04:10:47;;;;;;;67.93;43.17;;;;;;;;;;5013643;28;20411;-60
2023/08/30 04:13:15;;;;;;;80.80;46.88;;;;;;;;;;5022782;28;20424;-60
2023/08/30 04:15:42;;;;;;;74.40;44.03;;;;;;;;;;5014010;28;20943;-60
2023/08/30 04:18:09;;;;;;;74.68;44.97;;;;;;;;;;5008719;28;20405;-60
2023/08/30 04:20:37;;;;;;;79.40;46.92;;;;;;;;;;5014266;28;20430;-58
2023/08/30 04:23:04;;;;;;;84.13;48.57;;;;;;;;;;5007961;28;20883;-60
2023/08/30 04:25:32;;;;;;;96.53;52.15;;;;;;;;;;5022567;28;20424;-60
2023/08/30 04:27:59;;;;;;;88.13;51.25;;;;;;;;;;5007702;28;20440;-60
2023/08/30 04:30:26;;;;;;;99.57;52.10;;;;;;;;;;5006190;28;20422;-59
2023/08/30 04:32:53;;;;;;;94.03;53.33;;;;;;;;;;5013303;28;20407;-58
2023/08/30 04:35:20;;;;;;;100.43;52.72;;;;;;;;;;5010658;28;20418;-59
2023/08/30 04:37:49;;;;;;;95.00;51.13;;;;;;;;;;5020806;28;20529;-59
2023/08/30 04:40:16;;;;;;;84.10;49.08;;;;;;;;;;5016344;28;20416;-59
2023/08/30 04:42:43;;;;;;;92.30;49.83;;;;;;;;;;5009883;28;20467;-58
2023/08/30 04:45:10;;;;;;;95.68;50.67;;;;;;;;;;5011945;28;20432;-60
2023/08/30 04:47:37;;;;;;;93.03;49.10;;;;;;;;;;5011141;28;20466;-59
2023/08/30 04:50:04;;;;;;;93.40;50.37;;;;;;;;;;5009313;28;20443;-61
2023/08/30 04:52:32;;;;;;;102.57;51.97;;;;;;;;;;5012647;28;20416;-59
2023/08/30 04:55:00;;;;;;;106.32;54.13;;;;;;;;;;5007387;28;20427;-60
2023/08/30 04:57:27;;;;;;;99.18;52.80;;;;;;;;;;5023025;28;20436;-58
2023/08/30 04:59:54;;;;;;;97.18;53.25;;;;;;;;;;5025166;28;20419;-59
2023/08/30 05:02:21;;;;;;;103.85;55.17;;;;;;;;;;5015926;28;20416;-60
2023/08/30 05:04:48;;;;;;;101.25;53.92;;;;;;;;;;5018527;28;20415;-60
2023/08/30 05:07:16;;;;;;;90.20;52.70;;;;;;;;;;5016141;28;20432;-59
2023/08/30 05:09:43;;;;;;;93.05;52.75;;;;;;;;;;5012456;28;20906;-59
2023/08/30 05:12:11;;;;;;;97.28;52.47;;;;;;;;;;5014986;28;20421;-59
2023/08/30 05:14:38;;;;;;;94.15;52.30;;;;;;;;;;5019979;28;20412;-59
2023/08/30 05:17:05;;;;;;;93.72;52.67;;;;;;;;;;5018177;28;20416;-59
2023/08/30 05:19:32;;;;;;;93.25;51.70;;;;;;;;;;5016395;28;20420;-59
2023/08/30 05:21:59;;;;;;;91.95;51.92;;;;;;;;;;5015425;28;20421;-60
2023/08/30 05:24:28;;;;;;;87.43;50.45;;;;;;;;;;5005021;28;20422;-59
2023/08/30 05:26:55;;;;;;;83.28;48.30;;;;;;;;;;5015160;28;20427;-60
2023/08/30 05:29:23;;;;;;;80.03;47.45;;;;;;;;;;5011158;28;20733;-60
2023/08/30 05:31:50;;;;;;;73.27;46.17;;;;;;;;;;5009497;28;20424;-59
2023/08/30 05:34:17;;;;;;;73.28;46.95;;;;;;;;;;5013035;28;20419;-60
2023/08/30 05:36:44;;;;;;;68.40;45.78;;;;;;;;;;5015175;28;20418;-59
2023/08/30 05:39:12;;;;;;;69.25;44.92;;;;;;;;;;5013063;28;20519;-59
2023/08/30 05:41:39;;;;;;;70.15;43.20;;;;;;;;;;5013773;28;20418;-57
2023/08/30 05:44:07;;;;;;;67.32;44.80;;;;;;;;;;5002399;28;20416;-58
2023/08/30 05:46:35;;;;;;;66.50;44.08;;;;;;;;;;5020249;28;20418;-59
2023/08/30 05:49:03;;;;;;;62.70;44.20;;;;;;;;;;5014638;28;20442;-59
2023/08/30 05:51:30;;;;;;;63.03;43.63;;;;;;;;;;5008999;28;20426;-59
2023/08/30 05:53:57;;;;;;;71.93;44.25;;;;;;;;;;5008202;28;20928;-59
2023/08/30 05:56:24;;;;;;;63.25;41.03;;;;;;;;;;5012986;28;20419;-59
2023/08/30 05:58:51;;;;;;;63.08;43.15;;;;;;;;;;5007172;28;20415;-59
2023/08/30 06:01:19;;;;;;;62.90;43.05;;;;;;;;;;5007536;28;20531;-59
2023/08/30 06:03:47;;;;;;;71.60;44.63;;;;;;;;;;5010005;28;20428;-59
2023/08/30 06:06:15;;;;;;;63.92;43.47;;;;;;;;;;5012489;28;20419;-61
2023/08/30 06:08:42;;;;;;;59.20;41.40;;;;;;;;;;5020305;28;20427;-59
2023/08/30 06:11:09;;;;;;;57.03;41.28;;;;;;;;;;5005967;28;20416;-59
2023/08/30 06:13:36;;;;;;;57.92;40.72;;;;;;;;;;5011112;28;20796;-58
2023/08/30 06:16:03;;;;;;;55.10;39.53;;;;;;;;;;5009354;28;20428;-59
2023/08/30 06:18:31;;;;;;;53.88;37.53;;;;;;;;;;5008918;28;20409;-59
2023/08/30 06:20:59;;;;;;;53.83;37.83;;;;;;;;;;5009508;28;20910;-60
2023/08/30 06:23:27;;;;;;;50.42;37.95;;;;;;;;;;5007555;28;20767;-60
2023/08/30 06:25:57;;;;;;;52.35;37.70;;;;;;;;;;5010155;28;20824;-60
2023/08/30 06:28:24;;;;;;;52.60;37.88;;;;;;;;;;5011042;28;20434;-59
2023/08/30 06:30:51;;;;;;;52.47;37.95;;;;;;;;;;5006574;28;20419;-59
2023/08/30 06:33:18;;;;;;;52.53;37.60;;;;;;;;;;5004620;28;20910;-59
2023/08/30 06:35:45;;;;;;;53.92;38.80;;;;;;;;;;5009510;28;20422;-59
2023/08/30 06:38:14;;;;;;;52.63;37.72;;;;;;;;;;5011695;28;20408;-59
2023/08/30 06:40:44;;;;;;;53.47;36.85;;;;;;;;;;5007945;28;20418;-59
2023/08/30 06:43:11;;;;;;;48.88;37.58;;;;;;;;;;5011331;28;20416;-59
2023/08/30 06:45:38;;;;;;;53.10;38.53;;;;;;;;;;5007086;28;20434;-59
2023/08/30 06:48:06;;;;;;;51.90;38.75;;;;;;;;;;5011380;28;20949;-58
2023/08/30 06:50:33;;;;;;;51.78;37.08;;;;;;;;;;5008136;28;20425;-59
2023/08/30 06:53:00;;;;;;;52.27;37.37;;;;;;;;;;5009981;28;20417;-60
2023/08/30 06:55:28;;;;;;;49.47;36.13;;;;;;;;;;5005727;28;20828;-60
2023/08/30 06:57:56;;;;;;;45.40;35.83;;;;;;;;;;5013650;28;20888;-68
2023/08/30 07:00:23;;;;;;;45.13;35.67;;;;;;;;;;4998873;28;20451;-62
2023/08/30 07:02:50;;;;;;;44.47;34.92;;;;;;;;;;5013133;28;20437;-61
2023/08/30 07:05:17;;;;;;;40.63;32.03;;;;;;;;;;5012728;28;20884;-60
2023/08/30 07:07:44;;;;;;;40.25;32.15;;;;;;;;;;5012846;28;20435;-61
2023/08/30 07:10:12;;;;;;;36.85;29.63;;;;;;;;;;5015856;28;20409;-61
2023/08/30 07:12:40;;;;;;;37.22;29.73;;;;;;;;;;5015032;28;20413;-61
2023/08/30 07:15:07;;;;;;;35.15;27.83;;;;;;;;;;5008517;28;20416;-61
2023/08/30 07:17:35;;;;;;;35.30;27.00;;;;;;;;;;5008386;28;20495;-62
2023/08/30 07:20:04;;;;;;;33.58;26.45;;;;;;;;;;5003903;28;20424;-63
2023/08/30 07:22:31;;;;;;;31.30;25.40;;;;;;;;;;5008927;28;20448;-62
2023/08/30 07:24:58;;;;;;;29.83;24.33;;;;;;;;;;5000864;28;20419;-62
2023/08/30 07:27:28;;;;;;;30.87;22.60;;;;;;;;;;5021191;28;20975;-62
2023/08/30 07:29:56;;;;;;;27.27;21.73;;;;;;;;;;5016361;28;20442;-60
2023/08/30 07:32:23;;;;;;;27.27;21.55;;;;;;;;;;5012671;28;20452;-62
2023/08/30 07:34:50;;;;;;;25.92;21.17;;;;;;;;;;5017082;28;20430;-60
2023/08/30 07:37:19;;;;;;;24.10;20.27;;;;;;;;;;5015466;28;20419;-59
2023/08/30 07:39:46;;;;;;;26.40;19.50;;;;;;;;;;5004248;28;20995;-63
2023/08/30 07:42:13;;;;;;;20.77;16.92;;;;;;;;;;5016305;28;20423;-62
2023/08/30 07:44:40;;;;;;;21.42;17.40;;;;;;;;;;5004363;28;20420;-62
2023/08/30 07:47:09;;;;;;;19.52;16.30;;;;;;;;;;5017753;28;20418;-65
2023/08/30 07:49:36;;;;;;;17.25;15.43;;;;;;;;;;5009499;28;20431;-64
2023/08/30 07:52:03;;;;;;;17.58;14.18;;;;;;;;;;5015528;28;20427;-64
2023/08/30 07:54:30;;;;;;;16.92;14.52;;;;;;;;;;5014856;28;20434;-64
2023/08/30 07:56:57;;;;;;;18.75;14.65;;;;;;;;;;5013822;28;20424;-64
2023/08/30 07:59:24;;;;;;;16.33;13.53;;;;;;;;;;5004037;28;20415;-65
2023/08/30 08:01:51;;;;;;;17.02;12.93;;;;;;;;;;5008580;28;20417;-65
2023/08/30 08:04:19;;;;;;;14.13;12.05;;;;;;;;;;5008276;28;20463;-66
2023/08/30 08:06:47;;;;;;;13.73;11.20;;;;;;;;;;5006340;28;20424;-66
2023/08/30 08:09:15;;;;;;;12.95;10.27;;;;;;;;;;5007247;28;20437;-66
2023/08/30 08:11:43;;;;;;;13.90;10.20;;;;;;;;;;5005753;28;20897;-65
2023/08/30 08:14:10;;;;;;;12.00;9.00;;;;;;;;;;5007633;28;20412;-65
2023/08/30 08:16:38;;;;;;;10.15;9.13;;;;;;;;;;5005745;28;20419;-66
2023/08/30 08:19:06;;;;;;;11.80;8.95;;;;;;;;;;5006850;28;20428;-66
2023/08/30 08:21:36;;;;;;;8.63;7.72;;;;;;;;;;4986129;28;20434;-66
2023/08/30 08:24:03;;;;;;;9.23;6.82;;;;;;;;;;4986570;28;20427;-66
2023/08/30 08:26:30;;;;;;;9.32;6.60;;;;;;;;;;4989297;28;20420;-66
2023/08/30 08:28:58;;;;;;;7.63;6.80;;;;;;;;;;4988296;28;20425;-66
2023/08/30 08:31:25;;;;;;;8.50;6.55;;;;;;;;;;4984647;28;20917;-65
2023/08/30 08:33:53;;;;;;;7.75;6.07;;;;;;;;;;4992468;28;20452;-65
2023/08/30 08:36:20;;;;;;;9.13;5.60;;;;;;;;;;5005019;28;20411;-65
2023/08/30 08:38:49;;;;;;;6.75;5.35;;;;;;;;;;4990857;28;20409;-66
2023/08/30 08:41:17;;;;;;;6.03;5.07;;;;;;;;;;4986593;28;20410;-66
2023/08/30 08:43:44;;;;;;;9.00;5.40;;;;;;;;;;4991201;28;20999;-66
2023/08/30 08:46:12;;;;;;;7.53;5.90;;;;;;;;;;4986385;28;20422;-66
2023/08/30 08:48:42;;;;;;;8.63;5.35;;;;;;;;;;4997269;28;20447;-66
2023/08/30 08:51:09;;;;;;;7.78;5.30;;;;;;;;;;4985791;28;20418;-66
2023/08/30 08:53:36;;;;;;;7.28;5.53;;;;;;;;;;4999859;28;20427;-65
2023/08/30 08:56:06;;;;;;;7.28;5.28;;;;;;;;;;4992628;28;20419;-65
2023/08/30 08:58:33;;;;;;;9.10;5.47;;;;;;;;;;4993395;28;20410;-66
2023/08/30 09:01:01;;;;;;;8.43;5.32;;;;;;;;;;4990424;28;20418;-66
2023/08/30 09:03:28;;;;;;;8.57;5.22;;;;;;;;;;4988944;28;20414;-66
2023/08/30 09:05:55;;;;;;;8.43;4.70;;;;;;;;;;4990930;28;20792;-66
2023/08/30 09:08:23;;;;;;;7.63;5.43;;;;;;;;;;4993412;28;20959;-66
2023/08/30 09:10:50;;;;;;;8.50;5.28;;;;;;;;;;4985088;28;20414;-66
2023/08/30 09:13:20;;;;;;;9.18;5.05;;;;;;;;;;4992157;28;20505;-66
2023/08/30 09:15:48;;;;;;;6.97;5.30;;;;;;;;;;4992162;28;20511;-65
2023/08/30 09:18:16;;;;;;;6.95;5.28;;;;;;;;;;4989635;28;20848;-64
2023/08/30 09:20:43;;;;;;;9.32;5.97;;;;;;;;;;4996142;28;20428;-62
2023/08/30 09:23:18;;;;;;;9.85;5.47;;;;;;;;;;4983819;28;20414;-64
2023/08/30 09:25:45;;;;;;;6.90;5.50;;;;;;;;;;5004181;28;20538;-63
2023/08/30 09:28:13;;;;;;;7.70;5.57;;;;;;;;;;4996922;28;20440;-64
2023/08/30 09:30:41;;;;;;;6.93;5.63;;;;;;;;;;4988423;28;20418;-65
2023/08/30 09:33:09;;;;;;;7.43;5.57;;;;;;;;;;4990901;28;20419;-61
2023/08/30 09:35:41;;;;;;;8.53;5.37;;;;;;;;;;4984190;28;20465;-63
2023/08/30 09:38:08;;;;;;;7.22;5.82;;;;;;;;;;5000287;28;20405;-62
2023/08/30 09:40:35;;;;;;;9.20;5.47;;;;;;;;;;4997886;28;20414;-63
2023/08/30 09:43:02;;;;;;;7.47;6.03;;;;;;;;;;4996766;28;20429;-65
2023/08/30 09:45:31;;;;;;;9.15;5.70;;;;;;;;;;4987437;28;20783;-64
2023/08/30 09:48:02;;;;;;;8.20;5.20;;;;;;;;;;4990920;28;20796;-63
2023/08/30 09:50:30;;;;;;;8.05;5.82;;;;;;;;;;4986097;28;20414;-63
2023/08/30 09:52:57;;;;;;;8.88;6.10;;;;;;;;;;4991655;28;20415;-63
2023/08/30 09:55:25;;;;;;;11.32;5.93;;;;;;;;;;4985759;28;20411;-64
2023/08/30 09:57:52;;;;;;;9.23;5.65;;;;;;;;;;4985874;28;20412;-63
2023/08/30 10:00:20;;;;;;;8.82;6.00;;;;;;;;;;4984577;28;20410;-65
2023/08/30 10:02:47;;;;;;;9.15;5.55;;;;;;;;;;4985653;28;20423;-66
2023/08/30 10:05:16;;;;;;;8.38;5.78;;;;;;;;;;4992264;28;20418;-64
2023/08/30 10:07:44;;;;;;;8.40;5.60;;;;;;;;;;4986697;28;20923;-67
2023/08/30 10:10:11;;;;;;;7.82;5.32;;;;;;;;;;4980994;28;20426;-63
2023/08/30 10:12:40;;;;;;;7.73;5.10;;;;;;;;;;4986589;28;20422;-64
2023/08/30 10:15:07;;;;;;;7.00;5.40;;;;;;;;;;4988229;28;20785;-64
2023/08/30 10:17:35;;;;;;;8.23;6.20;;;;;;;;;;4984716;28;20419;-63
2023/08/30 10:20:05;;;;;;;10.52;7.57;;;;;;;;;;4984843;28;20422;-63
2023/08/30 10:22:34;;;;;;;10.10;7.95;;;;;;;;;;4983990;28;20412;-64
2023/08/30 10:25:04;;;;;;;9.48;8.05;;;;;;;;;;4989912;28;20783;-63
2023/08/30 10:27:32;;;;;;;9.32;8.38;;;;;;;;;;4981312;28;20474;-64
2023/08/30 10:30:00;;;;;;;12.77;9.43;;;;;;;;;;4983427;28;20773;-64
2023/08/30 10:32:27;;;;;;;11.15;9.32;;;;;;;;;;4987241;28;20425;-64
2023/08/30 10:34:54;;;;;;;10.88;9.77;;;;;;;;;;4999912;28;20412;-63
2023/08/30 10:37:24;;;;;;;12.10;10.27;;;;;;;;;;4993020;28;20448;-67
2023/08/30 10:39:53;;;;;;;10.40;9.30;;;;;;;;;;4997181;28;20488;-65
2023/08/30 10:42:24;;;;;;;11.52;9.85;;;;;;;;;;4985997;28;20760;-64
2023/08/30 10:44:52;;;;;;;12.82;10.13;;;;;;;;;;4992120;28;20417;-64
2023/08/30 10:47:19;;;;;;;15.82;10.60;;;;;;;;;;4984311;28;20924;-64
2023/08/30 10:49:48;;;;;;;12.70;11.40;;;;;;;;;;5003883;28;20435;-64
2023/08/30 10:52:15;;;;;;;12.65;11.15;;;;;;;;;;5002825;28;20479;-64
2023/08/30 10:54:42;;;;;;;12.00;10.77;;;;;;;;;;5002694;28;20423;-65
2023/08/30 10:57:15;;;;;;;14.20;11.73;;;;;;;;;;4985963;28;20842;-67
2023/08/30 10:59:49;;;;;;;13.30;11.80;;;;;;;;;;4988032;28;20412;-62
2023/08/30 11:02:17;;;;;;;13.60;12.05;;;;;;;;;;4986217;28;20422;-63
2023/08/30 11:04:44;;;;;;;14.35;12.30;;;;;;;;;;4990660;28;20420;-63
2023/08/30 11:07:12;;;;;;;13.27;11.82;;;;;;;;;;4989786;28;20414;-63
2023/08/30 11:09:41;;;;;;;13.80;11.52;;;;;;;;;;4986751;28;20432;-63
2023/08/30 11:12:08;;;;;;;14.00;12.38;;;;;;;;;;4985731;28;20854;-63
2023/08/30 11:14:36;;;;;;;15.60;12.13;;;;;;;;;;4987707;28;20452;-62
2023/08/30 11:17:04;;;;;;;14.95;12.40;;;;;;;;;;4992020;28;20819;-64
2023/08/30 11:19:32;;;;;;;15.68;13.10;;;;;;;;;;4990062;28;20768;-64
2023/08/30 11:21:59;;;;;;;16.95;14.32;;;;;;;;;;4994483;28;20895;-63
2023/08/30 11:24:26;;;;;;;17.05;14.52;;;;;;;;;;4989663;28;20747;-62
2023/08/30 11:26:56;;;;;;;18.25;14.18;;;;;;;;;;4994771;28;20921;-62
2023/08/30 11:29:23;;;;;;;19.38;15.85;;;;;;;;;;4988766;28;21035;-62
2023/08/30 11:31:52;;;;;;;17.38;15.52;;;;;;;;;;4983646;28;20418;-62
2023/08/30 11:34:22;;;;;;;19.85;16.33;;;;;;;;;;4999227;28;20551;-62
2023/08/30 11:36:49;;;;;;;17.77;15.07;;;;;;;;;;4995097;28;20469;-61
2023/08/30 11:39:17;;;;;;;17.90;15.23;;;;;;;;;;4990596;28;20456;-61
2023/08/30 11:41:45;;;;;;;16.23;14.13;;;;;;;;;;4988991;28;20473;-62
2023/08/30 11:44:12;;;;;;;17.98;14.02;;;;;;;;;;4988358;28;20766;-62
2023/08/30 11:46:39;;;;;;;17.92;15.20;;;;;;;;;;4989099;28;20465;-61
2023/08/30 11:49:07;;;;;;;16.23;14.52;;;;;;;;;;4989848;28;20434;-61
2023/08/30 11:51:35;;;;;;;14.03;11.70;;;;;;;;;;5007962;28;20952;-61
2023/08/30 11:54:03;;;;;;;11.50;10.30;;;;;;;;;;4989633;28;20479;-61
2023/08/30 11:56:30;;;;;;;10.65;8.30;;;;;;;;;;4992469;28;20464;-61
2023/08/30 11:58:57;;;;;;;9.48;8.48;;;;;;;;;;4984543;28;20885;-61
2023/08/30 12:01:25;;;;;;;10.75;8.35;;;;;;;;;;4987913;28;20410;-61
2023/08/30 12:03:52;;;;;;;10.20;7.35;;;;;;;;;;5000215;28;20785;-61
2023/08/30 12:06:20;;;;;;;8.90;6.82;;;;;;;;;;4997447;28;20418;-61
2023/08/30 12:08:47;;;;;;;8.20;6.40;;;;;;;;;;5000383;28;20478;-61
2023/08/30 12:11:21;;;;;;;7.32;5.28;;;;;;;;;;4994189;28;20425;-62
2023/08/30 12:13:48;;;;;;;5.90;5.13;;;;;;;;;;4988691;28;20970;-63
2023/08/30 12:16:20;;;;;;;5.97;5.20;;;;;;;;;;4989215;28;20488;-62
2023/08/30 12:18:47;;;;;;;6.20;5.32;;;;;;;;;;4989179;28;20456;-62
2023/08/30 12:21:15;;;;;;;6.07;4.90;;;;;;;;;;4989469;28;20420;-62
2023/08/30 12:23:43;;;;;;;6.80;5.30;;;;;;;;;;4983300;28;20892;-63
2023/08/30 12:26:11;;;;;;;8.15;5.45;;;;;;;;;;4993666;28;20836;-63
2023/08/30 12:28:39;;;;;;;9.70;5.40;;;;;;;;;;4991166;28;20454;-63
2023/08/30 12:31:07;;;;;;;8.35;6.00;;;;;;;;;;4987766;28;20535;-63
2023/08/30 12:33:34;;;;;;;8.25;6.30;;;;;;;;;;4991984;28;20414;-62
2023/08/30 12:36:01;;;;;;;7.13;6.20;;;;;;;;;;4985320;28;20480;-62
2023/08/30 12:38:29;;;;;;;8.02;6.05;;;;;;;;;;4987579;28;20889;-63
2023/08/30 12:40:57;;;;;;;7.10;6.40;;;;;;;;;;4993074;28;20779;-62
2023/08/30 12:43:25;;;;;;;7.55;6.65;;;;;;;;;;4994778;28;20421;-62
2023/08/30 12:45:52;;;;;;;7.50;6.30;;;;;;;;;;4992508;28;20420;-62
2023/08/30 12:48:19;;;;;;;6.32;5.72;;;;;;;;;;4991828;28;20583;-62
2023/08/30 12:50:47;;;;;;;6.40;5.70;;;;;;;;;;4992769;28;20447;-63
2023/08/30 12:53:16;;;;;;;6.83;6.10;;;;;;;;;;4990811;28;20422;-63
2023/08/30 12:55:43;;;;;;;6.07;5.50;;;;;;;;;;4993085;28;20432;-61
2023/08/30 12:58:13;;;;;;;8.77;6.40;;;;;;;;;;5000214;28;20420;-62
2023/08/30 13:00:41;;;;;;;6.90;6.13;;;;;;;;;;4983904;28;20418;-60
2023/08/30 13:03:08;;;;;;;5.60;5.10;;;;;;;;;;4989418;28;20420;-62
2023/08/30 13:05:36;;;;;;;6.18;5.55;;;;;;;;;;4987001;28;20431;-62
2023/08/30 13:08:03;;;;;;;7.25;5.78;;;;;;;;;;4992452;28;20412;-63
2023/08/30 13:10:30;;;;;;;6.03;5.13;;;;;;;;;;4983552;28;20918;-63
2023/08/30 13:12:57;;;;;;;6.55;5.57;;;;;;;;;;4985903;28;20954;-62
2023/08/30 13:15:25;;;;;;;6.05;5.47;;;;;;;;;;4985747;28;20414;-63
2023/08/30 13:17:53;;;;;;;6.40;5.80;;;;;;;;;;4987925;28;20427;-63
2023/08/30 13:20:20;;;;;;;6.35;5.75;;;;;;;;;;5004983;28;20409;-63
2023/08/30 13:22:47;;;;;;;6.60;5.68;;;;;;;;;;4989278;28;20438;-63
2023/08/30 13:25:14;;;;;;;7.60;6.13;;;;;;;;;;4994492;28;20458;-63
2023/08/30 13:27:41;;;;;;;9.50;6.80;;;;;;;;;;4999888;28;20933;-65
2023/08/30 13:30:08;;;;;;;8.07;6.85;;;;;;;;;;4982027;28;20445;-63
2023/08/30 13:32:37;;;;;;;7.07;6.37;;;;;;;;;;4989933;28;20425;-63
2023/08/30 13:35:04;;;;;;;8.27;6.95;;;;;;;;;;4987971;28;20425;-62
2023/08/30 13:37:31;;;;;;;7.90;7.10;;;;;;;;;;4985062;28;20418;-63
2023/08/30 13:39:58;;;;;;;9.10;7.18;;;;;;;;;;4984640;28;20414;-61
2023/08/30 13:42:25;;;;;;;9.13;8.15;;;;;;;;;;4990360;28;20418;-61
2023/08/30 13:44:53;;;;;;;8.35;7.47;;;;;;;;;;4985392;28;20427;-63
2023/08/30 13:47:20;;;;;;;7.93;7.03;;;;;;;;;;4987095;28;20426;-63
2023/08/30 13:49:48;;;;;;;7.72;7.00;;;;;;;;;;4988079;28;20553;-65
2023/08/30 13:52:16;;;;;;;10.32;7.32;;;;;;;;;;4989272;28;20801;-64
2023/08/30 13:54:43;;;;;;;8.67;7.00;;;;;;;;;;4981265;28;20870;-63
2023/08/30 13:57:10;;;;;;;8.50;6.80;;;;;;;;;;4989777;28;20410;-64
2023/08/30 13:59:37;;;;;;;7.53;6.82;;;;;;;;;;4981461;28;20777;-65
2023/08/30 14:02:05;;;;;;;8.27;6.90;;;;;;;;;;4988736;28;20892;-65
2023/08/30 14:04:33;;;;;;;7.03;6.32;;;;;;;;;;4979288;28;20424;-63
2023/08/30 14:07:03;;;;;;;6.88;6.28;;;;;;;;;;4991855;28;20420;-63
2023/08/30 14:09:30;;;;;;;7.40;6.23;;;;;;;;;;5006039;28;20422;-64
2023/08/30 14:11:57;;;;;;;7.72;6.10;;;;;;;;;;4997149;28;20419;-64
2023/08/30 14:14:24;;;;;;;5.87;5.27;;;;;;;;;;5001934;28;20421;-64
2023/08/30 14:16:51;;;;;;;7.00;6.28;;;;;;;;;;4995916;28;20423;-62
2023/08/30 14:19:18;;;;;;;6.13;5.47;;;;;;;;;;4988873;28;20500;-62
2023/08/30 14:21:46;;;;;;;5.90;5.30;;;;;;;;;;4991253;28;20427;-63
2023/08/30 14:24:14;;;;;;;8.15;5.45;;;;;;;;;;4987786;28;20434;-65
2023/08/30 14:26:41;;;;;;;5.40;4.90;;;;;;;;;;4994418;28;20485;-65
2023/08/30 14:29:08;;;;;;;5.53;5.00;;;;;;;;;;4986580;28;20414;-64